Time;durP1;ratioP1;P1;durP2;ratioP2;P2;SDS_P1;SDS_P2;PMS_P1;PMS_P2;Temp;Humidity;BMP_temperature;BMP_pressure;BME280_temperature;BME280_humidity;BME280_pressure;Samples;Min_cycle;Max_cycle;Signal;HPM_P1;HPM_P2
2021/11/09 00:01:38;;;;;;;4.18;3.60;;;23.70;41.50;;;;;;5053153;28;20418;-57
2021/11/09 00:04:07;;;;;;;3.75;3.08;;;23.70;41.50;;;;;;5053141;28;20045;-58
2021/11/09 00:06:42;;;;;;;4.72;3.63;;;23.80;41.60;;;;;;5053536;28;20052;-57
2021/11/09 00:09:15;;;;;;;5.13;3.72;;;23.70;41.60;;;;;;5052187;28;20506;-58
2021/11/09 00:11:42;;;;;;;3.53;3.17;;;23.70;41.50;;;;;;5053491;28;20124;-59
2021/11/09 00:14:10;;;;;;;4.65;3.20;;;23.70;41.50;;;;;;5053461;28;20110;-57
2021/11/09 00:16:38;;;;;;;3.92;3.53;;;23.70;41.50;;;;;;5053487;28;20052;-57
2021/11/09 00:19:05;;;;;;;3.92;3.58;;;23.70;41.50;;;;;;5055981;28;20055;-57
2021/11/09 00:21:32;;;;;;;3.58;3.28;;;23.70;41.50;;;;;;5055936;28;20052;-58
2021/11/09 00:24:00;;;;;;;3.15;2.83;;;23.70;41.50;;;;;;5057132;28;20045;-57
2021/11/09 00:26:28;;;;;;;4.13;3.22;;;23.70;41.60;;;;;;5056021;28;20483;-57
2021/11/09 00:28:56;;;;;;;3.55;3.20;;;23.60;41.50;;;;;;5056237;28;20518;-58
2021/11/09 00:31:23;;;;;;;4.60;3.13;;;23.60;41.50;;;;;;5056827;28;20056;-57
2021/11/09 00:33:51;;;;;;;4.90;3.70;;;23.60;41.50;;;;;;5057175;28;20049;-57
2021/11/09 00:36:18;;;;;;;4.72;3.38;;;23.60;41.60;;;;;;5056998;28;20505;-57
2021/11/09 00:38:46;;;;;;;4.13;3.17;;;23.60;41.60;;;;;;5056186;28;20068;-58
2021/11/09 00:41:14;;;;;;;3.88;3.13;;;23.60;41.60;;;;;;5056678;28;20041;-57
2021/11/09 00:43:42;;;;;;;3.72;3.03;;;23.60;41.60;;;;;;5056780;28;20049;-57
2021/11/09 00:46:09;;;;;;;4.15;3.20;;;23.60;41.70;;;;;;5057102;28;20409;-58
2021/11/09 00:48:36;;;;;;;4.55;3.17;;;23.60;41.70;;;;;;5055874;28;20060;-57
2021/11/09 00:51:04;;;;;;;3.88;3.10;;;23.60;41.70;;;;;;5056467;28;20489;-57
2021/11/09 00:53:31;;;;;;;3.20;2.88;;;23.60;41.70;;;;;;5056610;28;20059;-58
2021/11/09 00:55:58;;;;;;;4.05;3.00;;;23.60;41.70;;;;;;5056635;28;20049;-57
2021/11/09 00:58:26;;;;;;;4.47;3.47;;;23.60;41.70;;;;;;5055854;28;20490;-59
2021/11/09 01:00:53;;;;;;;3.42;2.88;;;23.60;41.60;;;;;;5055065;28;20445;-57
2021/11/09 01:03:21;;;;;;;3.45;2.80;;;23.60;41.60;;;;;;5056727;28;20118;-57
2021/11/09 01:05:48;;;;;;;4.10;3.47;;;23.60;41.60;;;;;;5056488;28;20064;-57
2021/11/09 01:08:18;;;;;;;4.20;3.03;;;23.60;41.60;;;;;;5055794;28;20060;-57
2021/11/09 01:10:50;;;;;;;3.85;2.90;;;23.60;41.60;;;;;;5055889;28;20107;-58
2021/11/09 01:13:19;;;;;;;3.63;3.30;;;23.60;41.60;;;;;;5056528;28;20049;-57
2021/11/09 01:15:49;;;;;;;3.17;2.83;;;23.60;41.60;;;;;;5056314;28;20128;-57
2021/11/09 01:18:19;;;;;;;3.38;2.83;;;23.60;41.60;;;;;;5055635;28;20102;-58
2021/11/09 01:20:47;;;;;;;4.00;2.92;;;23.60;41.60;;;;;;5054470;28;20507;-57
2021/11/09 01:23:15;;;;;;;4.25;3.15;;;23.60;41.60;;;;;;5055144;28;20049;-57
2021/11/09 01:25:42;;;;;;;3.55;3.00;;;23.60;41.60;;;;;;5056060;28;20060;-57
2021/11/09 01:28:10;;;;;;;3.88;3.10;;;23.50;41.50;;;;;;5055130;28;20054;-57
2021/11/09 01:30:41;;;;;;;3.28;3.00;;;23.60;41.50;;;;;;5055538;28;20103;-57
2021/11/09 01:33:08;;;;;;;3.65;3.30;;;23.50;41.50;;;;;;5056240;28;20064;-57
2021/11/09 01:35:37;;;;;;;2.95;2.63;;;23.50;41.50;;;;;;5055888;28;20049;-57
2021/11/09 01:38:05;;;;;;;3.90;3.20;;;23.50;41.50;;;;;;5055150;28;20055;-58
2021/11/09 01:40:33;;;;;;;3.47;3.10;;;23.50;41.50;;;;;;5055218;28;20103;-58
2021/11/09 01:43:01;;;;;;;3.10;2.80;;;23.50;41.50;;;;;;5055669;28;20049;-58
2021/11/09 01:45:29;;;;;;;3.28;2.90;;;23.50;41.50;;;;;;5055708;28;20044;-58
2021/11/09 01:47:57;;;;;;;2.75;2.47;;;23.50;41.50;;;;;;5055233;28;20048;-57
2021/11/09 01:50:33;;;;;;;4.03;2.95;;;23.50;41.50;;;;;;5055165;28;20052;-57
2021/11/09 01:53:01;;;;;;;3.70;2.88;;;23.50;41.60;;;;;;5055466;28;20059;-58
2021/11/09 01:55:30;;;;;;;3.20;2.90;;;23.40;41.50;;;;;;5055877;28;20053;-58
2021/11/09 01:57:58;;;;;;;3.03;2.60;;;23.50;41.60;;;;;;5053927;28;20410;-58
2021/11/09 02:00:30;;;;;;;2.58;2.38;;;23.40;41.60;;;;;;5053569;28;20060;-57
2021/11/09 02:02:58;;;;;;;3.05;2.75;;;23.40;41.60;;;;;;5055262;28;20049;-58
2021/11/09 02:05:28;;;;;;;3.72;3.00;;;23.40;41.60;;;;;;5055233;28;20056;-57
2021/11/09 02:07:57;;;;;;;3.08;2.72;;;23.40;41.60;;;;;;5037497;28;20076;-58
2021/11/09 02:10:27;;;;;;;2.78;2.30;;;23.40;41.60;;;;;;5053550;28;20049;-58
2021/11/09 02:12:56;;;;;;;4.53;3.05;;;23.40;41.60;;;;;;5054317;28;20064;-57
2021/11/09 02:15:25;;;;;;;2.97;2.63;;;23.40;41.60;;;;;;5055094;28;20056;-57
2021/11/09 02:17:54;;;;;;;3.22;2.60;;;23.40;41.60;;;;;;5055229;28;20081;-58
2021/11/09 02:20:23;;;;;;;3.05;2.33;;;23.40;41.60;;;;;;5054485;28;20044;-57
2021/11/09 02:22:51;;;;;;;3.58;2.60;;;23.40;41.50;;;;;;5055280;28;20063;-57
2021/11/09 02:25:21;;;;;;;3.65;2.70;;;23.40;41.50;;;;;;5055009;28;20469;-57
2021/11/09 02:27:49;;;;;;;2.25;2.05;;;23.40;41.50;;;;;;5054463;28;20095;-58
2021/11/09 02:30:19;;;;;;;3.78;2.67;;;23.50;41.50;;;;;;5054588;28;20061;-58
2021/11/09 02:32:48;;;;;;;2.92;2.50;;;23.40;41.50;;;;;;5053561;28;20048;-58
2021/11/09 02:35:15;;;;;;;2.53;2.30;;;23.40;42.00;;;;;;5055070;28;20076;-58
2021/11/09 02:37:43;;;;;;;2.40;2.20;;;23.40;42.00;;;;;;5054537;28;20049;-58
2021/11/09 02:40:11;;;;;;;2.60;2.38;;;23.40;41.50;;;;;;5052865;28;20049;-57
2021/11/09 02:42:43;;;;;;;2.40;2.20;;;23.40;41.50;;;;;;5054834;28;20040;-58
2021/11/09 02:45:25;;;;;;;3.13;2.78;;;23.40;41.50;;;;;;5054883;28;20044;-57
2021/11/09 02:47:59;;;;;;;2.47;2.28;;;23.40;41.50;;;;;;5053942;28;20041;-58
2021/11/09 02:50:31;;;;;;;2.63;2.42;;;23.40;41.50;;;;;;5053989;28;20136;-57
2021/11/09 02:53:06;;;;;;;2.45;2.25;;;23.40;41.50;;;;;;5054653;28;20049;-57
2021/11/09 02:55:38;;;;;;;2.55;2.33;;;23.40;41.50;;;;;;5054690;28;20469;-57
2021/11/09 02:58:31;;;;;;;2.80;2.60;;;23.40;41.50;;;;;;5053668;28;20041;-57
2021/11/09 03:01:07;;;;;;;2.85;2.63;;;23.40;41.50;;;;;;5053907;28;20477;-57
2021/11/09 03:03:58;;;;;;;2.70;2.08;;;23.40;41.50;;;;;;5054164;28;20045;-57
2021/11/09 03:06:27;;;;;;;2.17;2.00;;;23.40;41.50;;;;;;5053957;28;20102;-57
2021/11/09 03:09:01;;;;;;;2.55;2.35;;;23.40;41.50;;;;;;5053674;28;20049;-57
2021/11/09 03:11:29;;;;;;;2.55;2.30;;;23.40;41.50;;;;;;5053828;28;20053;-57
2021/11/09 03:13:57;;;;;;;2.55;2.28;;;23.40;41.50;;;;;;5054259;28;20049;-57
2021/11/09 03:16:28;;;;;;;3.70;2.70;;;23.40;41.50;;;;;;5053945;28;20132;-57
2021/11/09 03:19:07;;;;;;;2.83;2.53;;;23.40;41.50;;;;;;5053196;28;20053;-57
2021/11/09 03:44:20;;;;;;;2.28;2.08;;;23.30;41.50;;;;;;5052475;28;20135;-57
2021/11/09 03:46:53;;;;;;;2.60;2.40;;;23.30;41.50;;;;;;5053510;28;20509;-57
2021/11/09 03:49:24;;;;;;;2.45;2.25;;;23.20;41.50;;;;;;5052514;28;20111;-57
2021/11/09 03:51:52;;;;;;;2.42;2.22;;;23.30;41.50;;;;;;5052068;28;20053;-57
2021/11/09 03:54:27;;;;;;;1.92;1.80;;;23.30;41.50;;;;;;5053318;28;20087;-58
2021/11/09 03:57:18;;;;;;;1.92;1.80;;;23.30;41.50;;;;;;5053692;28;20084;-57
2021/11/09 03:59:51;;;;;;;2.35;2.10;;;23.30;41.50;;;;;;5052117;28;20053;-58
2021/11/09 04:02:25;;;;;;;2.22;2.00;;;23.30;41.50;;;;;;5052515;28;20103;-59
2021/11/09 04:04:56;;;;;;;3.08;2.30;;;23.30;41.40;;;;;;5052010;28;20124;-57
2021/11/09 04:10:33;;;;;;;2.20;2.00;;;23.30;41.40;;;;;;5051322;28;20395;-57
2021/11/09 04:13:10;;;;;;;2.50;1.88;;;23.30;41.40;;;;;;5053098;28;20045;-57
2021/11/09 04:15:51;;;;;;;2.10;1.90;;;23.30;41.40;;;;;;5052159;28;20084;-58
2021/11/09 04:18:31;;;;;;;2.33;2.00;;;23.30;41.50;;;;;;5052822;28;20051;-57
2021/11/09 04:21:14;;;;;;;2.17;1.98;;;23.20;41.40;;;;;;5052868;28;20049;-57
2021/11/09 04:24:19;;;;;;;1.95;1.83;;;23.30;41.50;;;;;;5053318;28;20079;-57
2021/11/09 04:29:32;;;;;;;1.70;1.60;;;23.20;41.40;;;;;;5052008;28;20048;-57
2021/11/09 04:32:11;;;;;;;2.40;2.20;;;23.20;41.40;;;;;;5053118;28;20049;-57
2021/11/09 04:35:06;;;;;;;1.83;1.60;;;23.20;41.40;;;;;;5052930;28;20053;-57
2021/11/09 04:44:28;;;;;;;1.98;1.88;;;23.20;41.40;;;;;;5052216;28;20107;-57
2021/11/09 04:47:04;;;;;;;2.08;1.88;;;23.20;41.40;;;;;;5051972;28;20555;-57
2021/11/09 04:49:08;;;;;;;2.03;1.73;;;23.20;41.40;;;;;;5051969;28;20057;-58
2021/11/09 04:51:47;;;;;;;1.98;1.77;;;23.20;41.40;;;;;;5052670;28;20084;-57
2021/11/09 05:02:49;;;;;;;1.92;1.73;;;23.20;41.40;;;;;;5051773;28;20084;-57
2021/11/09 05:10:54;;;;;;;1.83;1.70;;;23.20;41.30;;;;;;5055920;28;20045;-57
2021/11/09 05:13:21;;;;;;;;;;;23.20;41.80;;;;;;5056712;28;20498;-57
2021/11/09 05:15:49;;;;;;;1.75;1.65;;;23.20;41.20;;;;;;5056282;28;20320;-57
2021/11/09 05:18:16;;;;;;;1.77;1.67;;;23.20;41.20;;;;;;5054863;28;20104;-57
2021/11/09 05:20:43;;;;;;;1.73;1.63;;;23.20;41.10;;;;;;5055621;28;20080;-57
2021/11/09 05:23:10;;;;;;;2.20;2.00;;;23.20;41.10;;;;;;5056093;28;20128;-57
2021/11/09 05:25:38;;;;;;;1.80;1.70;;;23.30;41.20;;;;;;5055262;28;20493;-57
2021/11/09 05:28:08;;;;;;;1.50;1.40;;;23.30;41.10;;;;;;5035558;28;20059;-57
2021/11/09 05:30:38;;;;;;;2.40;1.87;;;23.30;41.00;;;;;;5029231;28;20044;-59
2021/11/09 05:33:06;;;;;;;1.67;1.58;;;23.30;41.00;;;;;;5025997;28;20041;-62
2021/11/09 05:35:34;;;;;;;1.90;1.67;;;23.30;40.90;;;;;;5025646;28;20056;-58
2021/11/09 05:38:04;;;;;;;1.55;1.40;;;23.30;40.90;;;;;;5021637;28;20129;-57
2021/11/09 05:40:36;;;;;;;1.50;1.40;;;23.30;40.80;;;;;;5036371;28;20052;-58
2021/11/09 05:43:04;;;;;;;2.17;1.85;;;23.30;40.80;;;;;;5046345;28;20067;-58
2021/11/09 05:45:32;;;;;;;1.60;1.50;;;23.30;40.80;;;;;;5046718;28;20106;-57
2021/11/09 05:48:00;;;;;;;1.90;1.80;;;23.30;40.80;;;;;;5022480;28;20055;-58
2021/11/09 05:50:27;;;;;;;1.75;1.65;;;23.30;40.80;;;;;;5026606;28;20053;-57
2021/11/09 05:52:58;;;;;;;2.05;1.85;;;23.30;40.70;;;;;;5024470;28;21369;-57
2021/11/09 05:55:28;;;;;;;2.10;1.60;;;23.40;40.70;;;;;;5024570;28;20636;-57
2021/11/09 05:57:55;;;;;;;1.67;1.57;;;23.40;40.70;;;;;;5020642;28;20496;-58
2021/11/09 06:00:22;;;;;;;1.48;1.38;;;23.40;40.70;;;;;;5017396;28;20052;-58
2021/11/09 06:02:49;;;;;;;1.83;1.73;;;23.30;40.60;;;;;;5024409;28;20045;-58
2021/11/09 06:05:17;;;;;;;2.05;1.95;;;23.40;40.70;;;;;;5020494;28;20324;-57
2021/11/09 06:07:44;;;;;;;1.90;1.70;;;23.40;40.60;;;;;;5018227;28;20041;-57
2021/11/09 06:10:11;;;;;;;2.00;1.80;;;23.40;40.50;;;;;;5016477;28;20141;-57
2021/11/09 06:12:39;;;;;;;2.20;2.00;;;23.40;40.40;;;;;;5023537;28;20124;-58
2021/11/09 06:15:06;;;;;;;2.22;1.80;;;23.40;40.30;;;;;;5024779;28;20107;-57
2021/11/09 06:17:34;;;;;;;1.83;1.73;;;23.50;40.60;;;;;;5027060;28;20481;-57
2021/11/09 06:20:01;;;;;;;2.38;1.67;;;23.50;40.50;;;;;;5010874;28;20455;-57
2021/11/09 06:22:28;;;;;;;1.98;1.77;;;23.50;40.40;;;;;;5021092;28;20053;-59
2021/11/09 06:24:55;;;;;;;2.03;1.92;;;23.50;40.30;;;;;;5015672;28;20053;-59
2021/11/09 06:27:23;;;;;;;2.47;2.28;;;23.50;40.10;;;;;;5026136;28;20103;-58
2021/11/09 06:29:52;;;;;;;2.28;2.08;;;23.60;39.90;;;;;;5008969;28;20053;-55
2021/11/09 06:32:19;;;;;;;2.08;1.92;;;23.60;39.70;;;;;;5020439;28;20064;-57
2021/11/09 06:34:47;;;;;;;2.90;2.17;;;23.60;39.50;;;;;;5016732;28;20115;-55
2021/11/09 06:37:14;;;;;;;2.50;2.20;;;23.70;39.40;;;;;;5020204;28;20045;-58
2021/11/09 06:39:41;;;;;;;2.40;2.20;;;23.80;39.70;;;;;;5009586;28;20114;-57
2021/11/09 06:42:09;;;;;;;2.50;2.30;;;23.90;39.50;;;;;;5016100;28;20482;-57
2021/11/09 06:44:37;;;;;;;2.30;2.20;;;23.90;39.30;;;;;;5019118;28;20098;-57
2021/11/09 06:47:04;;;;;;;6.13;2.10;;;24.00;39.20;;;;;;5024352;28;20057;-58
2021/11/09 06:49:31;;;;;;;3.08;2.67;;;24.00;39.30;;;;;;5010122;28;20064;-58
2021/11/09 06:51:59;;;;;;;2.60;2.40;;;24.10;39.30;;;;;;5015209;28;20461;-58
2021/11/09 06:54:26;;;;;;;4.13;2.55;;;24.10;39.30;;;;;;5016288;28;20053;-60
2021/11/09 06:56:54;;;;;;;3.40;2.88;;;24.10;39.30;;;;;;5014287;28;20049;-57
2021/11/09 06:59:21;;;;;;;3.33;2.83;;;24.10;39.30;;;;;;5006032;28;20091;-58
2021/11/09 07:01:49;;;;;;;3.60;2.72;;;24.10;39.30;;;;;;5006446;28;20061;-58
2021/11/09 07:04:16;;;;;;;3.03;2.65;;;24.10;39.20;;;;;;5017597;28;20430;-55
2021/11/09 07:06:44;;;;;;;4.80;3.13;;;24.10;39.20;;;;;;5013648;28;20076;-55
2021/11/09 07:09:13;;;;;;;3.33;3.03;;;24.10;39.30;;;;;;5006005;28;20250;-56
2021/11/09 07:11:41;;;;;;;4.65;3.05;;;24.10;39.40;;;;;;5009386;28;20077;-57
2021/11/09 07:14:11;;;;;;;4.00;3.50;;;24.20;39.60;;;;;;5020876;28;20040;-56
2021/11/09 07:16:40;;;;;;;3.70;3.40;;;24.20;39.60;;;;;;5016250;28;20052;-56
2021/11/09 07:19:09;;;;;;;5.88;3.35;;;24.20;39.50;;;;;;5010576;28;20057;-57
2021/11/09 07:21:36;;;;;;;3.33;2.88;;;24.20;39.50;;;;;;5009299;28;20057;-60
2021/11/09 07:24:05;;;;;;;6.65;3.33;;;24.30;39.60;;;;;;5018346;28;20457;-57
2021/11/09 07:26:33;;;;;;;4.60;3.13;;;24.30;39.60;;;;;;5012505;28;20048;-58
2021/11/09 07:29:01;;;;;;;3.92;3.25;;;24.30;39.60;;;;;;5010652;28;20106;-57
2021/11/09 07:31:29;;;;;;;3.90;3.42;;;24.30;39.50;;;;;;5014452;28;20067;-56
2021/11/09 07:33:56;;;;;;;5.35;3.60;;;24.40;39.60;;;;;;5014654;28;20041;-56
2021/11/09 07:36:25;;;;;;;5.13;3.63;;;24.40;39.50;;;;;;5012893;28;20045;-56
2021/11/09 07:38:53;;;;;;;6.88;3.67;;;24.40;39.40;;;;;;5008514;28;20079;-56
2021/11/09 07:41:20;;;;;;;4.72;3.97;;;24.50;39.40;;;;;;5011225;28;20071;-58
2021/11/09 07:43:47;;;;;;;5.18;3.55;;;24.50;39.40;;;;;;5018795;28;20064;-56
2021/11/09 07:46:15;;;;;;;5.93;3.17;;;24.50;39.40;;;;;;5016346;28;20057;-55
2021/11/09 07:48:42;;;;;;;7.70;2.72;;;24.50;39.30;;;;;;5009586;28;20052;-58
2021/11/09 07:51:10;;;;;;;4.25;3.17;;;24.50;39.30;;;;;;5007915;28;20135;-54
2021/11/09 07:53:39;;;;;;;4.18;3.25;;;24.60;39.30;;;;;;5016123;28;20886;-55
2021/11/09 07:56:20;;;;;;;4.15;3.50;;;24.60;39.20;;;;;;5013442;28;20053;-57
2021/11/09 07:59:03;;;;;;;;;;;24.60;39.60;;;;;;5007877;28;20052;-59
2021/11/09 08:01:46;;;;;;;3.10;2.80;;;24.70;39.00;;;;;;5010331;28;20305;-58
2021/11/09 08:04:36;;;;;;;4.80;3.35;;;24.70;39.00;;;;;;5016419;28;20049;-59
2021/11/09 08:07:04;;;;;;;4.63;2.95;;;24.70;39.00;;;;;;5016371;28;20080;-58
2021/11/09 08:09:32;;;;;;;5.10;3.05;;;24.70;39.00;;;;;;5003940;28;20279;-59
2021/11/09 08:12:02;;;;;;;3.50;3.17;;;24.70;39.00;;;;;;5016629;28;20053;-59
2021/11/09 08:14:30;;;;;;;3.65;2.67;;;24.70;39.10;;;;;;5016265;28;20068;-59
2021/11/09 08:16:58;;;;;;;4.18;3.00;;;24.70;39.20;;;;;;5012684;28;20087;-59
2021/11/09 08:19:25;;;;;;;3.88;3.08;;;24.70;39.20;;;;;;5006833;28;20127;-58
2021/11/09 08:21:54;;;;;;;3.08;2.60;;;24.70;39.30;;;;;;5014549;28;20412;-59
2021/11/09 08:24:22;;;;;;;4.70;2.85;;;24.80;39.30;;;;;;5019109;28;20560;-58
2021/11/09 08:26:51;;;;;;;3.85;3.05;;;24.80;39.40;;;;;;5013555;28;20053;-59
2021/11/09 08:29:23;;;;;;;3.97;2.60;;;24.80;39.40;;;;;;5003146;28;20056;-58
2021/11/09 08:31:51;;;;;;;3.05;2.58;;;24.80;39.40;;;;;;5013335;28;20092;-58
2021/11/09 08:34:19;;;;;;;2.60;2.40;;;24.80;39.40;;;;;;5013846;28;20053;-59
2021/11/09 08:36:47;;;;;;;5.43;2.80;;;24.80;39.40;;;;;;5013980;28;20132;-59
2021/11/09 08:39:25;;;;;;;2.42;2.22;;;24.80;39.40;;;;;;5003542;28;20092;-59
2021/11/09 08:42:11;;;;;;;6.45;2.60;;;24.80;39.60;;;;;;5017326;28;20053;-58
2021/11/09 08:44:49;;;;;;;2.42;2.22;;;24.90;39.70;;;;;;5023288;28;20513;-58
2021/11/09 08:47:21;;;;;;;2.75;2.55;;;24.90;39.70;;;;;;5018491;28;20088;-57
2021/11/09 08:49:50;;;;;;;3.20;2.25;;;24.90;40.20;;;;;;5001036;28;20573;-58
2021/11/09 08:52:22;;;;;;;3.00;2.75;;;24.90;39.60;;;;;;5020321;28;20060;-58
2021/11/09 08:55:17;;;;;;;2.95;2.47;;;24.90;39.50;;;;;;5022334;28;20115;-58
2021/11/09 09:05:59;;;;;;;4.15;2.67;;;25.00;39.80;;;;;;5020328;28;20052;-61
2021/11/09 09:08:27;;;;;;;4.03;2.80;;;25.00;39.80;;;;;;5019914;28;20497;-59
2021/11/09 09:10:54;;;;;;;3.08;2.58;;;25.00;39.70;;;;;;5012630;28;20053;-58
2021/11/09 09:13:21;;;;;;;2.33;2.13;;;25.00;39.70;;;;;;5021761;28;20493;-59
2021/11/09 09:15:48;;;;;;;2.42;2.22;;;25.00;39.70;;;;;;5015239;28;20056;-60
2021/11/09 09:18:18;;;;;;;2.40;2.20;;;25.00;39.70;;;;;;5017384;28;20087;-59
2021/11/09 09:20:50;;;;;;;4.28;1.73;;;25.00;39.70;;;;;;5009779;28;20410;-60
2021/11/09 09:23:21;;;;;;;2.42;2.22;;;25.10;39.90;;;;;;5016630;28;20111;-59
2021/11/09 09:26:11;;;;;;;2.60;1.85;;;25.10;39.90;;;;;;5017987;28;20536;-59
2021/11/09 09:29:07;;;;;;;2.20;2.00;;;25.10;40.00;;;;;;5013753;28;20053;-59
2021/11/09 09:54:01;;;;;;;2.40;1.83;;;25.30;39.50;;;;;;5020335;28;20467;-57
2021/11/09 09:56:44;;;;;;;2.05;1.58;;;25.30;39.50;;;;;;5016359;28;20044;-54
2021/11/09 09:59:12;;;;;;;2.35;2.03;;;25.40;39.40;;;;;;5013231;28;20080;-59
2021/11/09 10:02:24;;;;;;;2.58;1.70;;;25.40;39.30;;;;;;5015928;28;20100;-57
2021/11/09 10:05:01;;;;;;;2.08;1.88;;;25.50;39.20;;;;;;5022300;28;20106;-55
2021/11/09 10:07:37;;;;;;;2.08;1.83;;;25.50;39.10;;;;;;5018118;28;20092;-53
2021/11/09 10:10:23;;;;;;;1.92;1.70;;;25.50;38.90;;;;;;5006248;28;20051;-57
2021/11/09 10:13:01;;;;;;;2.15;1.73;;;25.60;38.90;;;;;;5017479;28;20057;-56
2021/11/09 10:15:32;;;;;;;1.63;1.52;;;25.60;38.80;;;;;;5018078;28;20053;-58
2021/11/09 10:18:15;;;;;;;1.70;1.40;;;25.60;38.70;;;;;;5013958;28;20053;-58
2021/11/09 10:20:51;;;;;;;1.67;1.58;;;25.70;38.70;;;;;;5015435;28;20091;-57
2021/11/09 10:23:25;;;;;;;2.63;2.13;;;25.70;38.60;;;;;;5020383;28;20118;-58
2021/11/09 10:25:59;;;;;;;1.67;1.58;;;25.70;38.50;;;;;;5019770;28;20153;-58
2021/11/09 10:28:26;;;;;;;3.08;1.60;;;25.70;38.60;;;;;;5014464;28;20488;-57
2021/11/09 10:30:57;;;;;;;3.75;1.70;;;25.70;38.50;;;;;;5006717;28;20132;-58
2021/11/09 10:33:27;;;;;;;3.42;1.67;;;25.80;38.50;;;;;;5019293;28;20151;-58
2021/11/09 10:35:55;;;;;;;2.72;2.47;;;25.80;38.40;;;;;;5016888;28;20061;-54
2021/11/09 10:38:31;;;;;;;1.80;1.55;;;25.80;38.30;;;;;;5005979;28;20048;-58
2021/11/09 10:41:00;;;;;;;3.70;1.92;;;25.80;38.10;;;;;;5011783;28;20088;-58
2021/11/09 10:43:30;;;;;;;2.07;1.87;;;25.80;37.90;;;;;;5022307;28;20044;-58
2021/11/09 10:45:57;;;;;;;1.70;1.60;;;25.80;37.90;;;;;;5017945;28;20494;-56
2021/11/09 10:48:24;;;;;;;1.70;1.60;;;25.80;37.70;;;;;;5015023;28;20550;-57
2021/11/09 10:50:55;;;;;;;2.38;1.70;;;25.80;37.70;;;;;;5016101;28;20247;-56
2021/11/09 10:53:39;;;;;;;4.18;1.60;;;25.90;37.70;;;;;;5016565;28;20111;-55
2021/11/09 10:56:29;;;;;;;2.38;1.70;;;25.90;37.60;;;;;;5020703;28;20045;-59
2021/11/09 10:59:14;;;;;;;1.80;1.70;;;25.90;37.60;;;;;;5012247;28;20134;-53
2021/11/09 11:04:37;;;;;;;2.75;2.42;;;25.90;37.00;;;;;;5020076;28;20049;-55
2021/11/09 11:07:07;;;;;;;2.20;2.00;;;26.00;35.80;;;;;;5019278;28;20076;-50
2021/11/09 11:09:40;;;;;;;5.85;2.13;;;25.90;36.10;;;;;;5006922;28;20494;-50
2021/11/09 11:12:13;;;;;;;5.85;2.40;;;26.00;36.20;;;;;;5021594;28;20118;-54
2021/11/09 11:14:45;;;;;;;3.08;2.70;;;25.90;36.10;;;;;;5020377;28;20134;-53
2021/11/09 11:17:17;;;;;;;1.92;1.75;;;25.90;35.00;;;;;;5020057;28;20056;-56
2021/11/09 11:19:53;;;;;;;2.05;1.88;;;25.90;34.70;;;;;;5012553;28;21072;-57
2021/11/09 11:22:25;;;;;;;3.20;2.20;;;25.90;35.00;;;;;;5022603;28;20055;-54
2021/11/09 11:24:54;;;;;;;3.17;1.85;;;25.90;34.80;;;;;;5019271;28;20041;-54
2021/11/09 11:27:22;;;;;;;1.75;1.65;;;25.80;34.90;;;;;;5017455;28;20161;-54
2021/11/09 11:29:50;;;;;;;2.05;1.90;;;25.90;35.60;;;;;;5004608;28;20662;-54
2021/11/09 11:32:21;;;;;;;5.18;1.75;;;25.90;35.70;;;;;;5020667;28;20501;-55
2021/11/09 11:34:50;;;;;;;2.05;1.85;;;25.90;35.80;;;;;;5018655;28;20140;-54
2021/11/09 11:37:19;;;;;;;4.15;1.65;;;25.90;35.80;;;;;;5019366;28;20140;-53
2021/11/09 11:39:50;;;;;;;2.67;1.63;;;25.90;35.70;;;;;;5007986;28;20547;-55
2021/11/09 11:42:18;;;;;;;1.95;1.65;;;25.90;35.60;;;;;;5018798;28;20057;-55
2021/11/09 11:44:58;;;;;;;2.13;1.90;;;26.00;35.50;;;;;;5018366;28;20049;-54
2021/11/09 11:47:26;;;;;;;3.72;1.27;;;25.90;34.90;;;;;;5017085;28;20111;-53
2021/11/09 11:50:00;;;;;;;2.35;1.67;;;26.00;35.10;;;;;;5012609;28;20134;-57
2021/11/09 11:52:40;;;;;;;1.27;1.17;;;26.00;35.60;;;;;;5020713;28;20080;-57
2021/11/09 11:55:26;;;;;;;1.40;1.30;;;26.00;35.70;;;;;;5023008;28;20052;-56
2021/11/09 11:58:06;;;;;;;1.45;1.33;;;25.90;35.80;;;;;;5019364;28;20053;-57
2021/11/09 12:00:56;;;;;;;1.67;1.10;;;26.00;35.80;;;;;;5008967;28;20136;-57
2021/11/09 12:03:30;;;;;;;;;;;26.00;35.80;;;;;;5014317;28;20049;-57
2021/11/09 12:06:19;;;;;;;1.35;1.27;;;26.00;36.00;;;;;;5021274;28;19928;-54
2021/11/09 12:08:50;;;;;;;2.65;1.90;;;26.00;36.10;;;;;;5014275;28;20403;-56
2021/11/09 12:11:35;;;;;;;1.45;1.35;;;26.00;36.10;;;;;;5013818;28;20064;-55
2021/11/09 12:14:14;;;;;;;3.05;1.52;;;26.00;36.10;;;;;;5021805;28;20126;-54
2021/11/09 12:16:55;;;;;;;1.52;1.42;;;26.00;36.20;;;;;;5025119;28;20466;-55
2021/11/09 12:19:47;;;;;;;1.30;1.27;;;26.00;36.20;;;;;;5013486;28;20057;-55
2021/11/09 12:22:19;;;;;;;1.98;1.17;;;26.00;36.10;;;;;;5019138;28;20175;-56
2021/11/09 12:24:58;;;;;;;1.20;1.10;;;26.10;36.10;;;;;;5017319;28;20053;-57
2021/11/09 12:27:58;;;;;;;1.38;1.27;;;26.10;36.30;;;;;;5019418;28;20045;-58
2021/11/09 12:30:49;;;;;;;2.33;1.43;;;26.10;36.10;;;;;;5013486;28;20049;-57
2021/11/09 12:33:24;;;;;;;1.50;1.30;;;26.20;35.90;;;;;;5023537;28;20122;-56
2021/11/09 12:36:22;;;;;;;3.60;1.10;;;26.20;35.80;;;;;;5022114;28;20064;-53
2021/11/09 12:38:55;;;;;;;2.25;1.35;;;26.10;35.60;;;;;;5014278;28;20053;-56
2021/11/09 12:41:32;;;;;;;1.73;1.02;;;26.10;35.40;;;;;;5015579;28;20049;-56
2021/11/09 12:44:03;;;;;;;3.53;1.23;;;26.10;35.30;;;;;;5018881;28;20088;-56
2021/11/09 12:46:39;;;;;;;1.27;1.17;;;26.10;35.30;;;;;;5025645;28;20472;-56
2021/11/09 12:49:13;;;;;;;1.38;1.27;;;26.20;35.20;;;;;;5018303;28;20060;-55
2021/11/09 12:51:46;;;;;;;4.15;1.50;;;26.20;34.90;;;;;;5015644;28;20710;-55
2021/11/09 12:54:29;;;;;;;2.45;1.50;;;26.10;34.60;;;;;;5021453;28;20137;-55
2021/11/09 12:57:02;;;;;;;3.15;1.63;;;26.10;34.60;;;;;;5020423;28;20082;-57
2021/11/09 12:59:52;;;;;;;2.95;1.52;;;26.20;34.60;;;;;;5010278;28;20056;-57
2021/11/09 13:02:28;;;;;;;1.63;1.27;;;26.10;34.50;;;;;;5019002;28;20304;-57
2021/11/09 13:05:24;;;;;;;1.48;1.38;;;26.20;34.70;;;;;;5016553;28;20176;-55
2021/11/09 13:07:48;;;;;;;1.60;1.50;;;26.20;34.70;;;;;;5019043;28;20068;-59
2021/11/09 13:10:21;;;;;;;2.13;1.85;;;26.10;34.50;;;;;;5008501;28;20064;-56
2021/11/09 13:12:54;;;;;;;2.03;1.33;;;26.20;34.40;;;;;;5018369;28;20134;-54
2021/11/09 13:15:23;;;;;;;2.13;1.50;;;26.10;34.40;;;;;;5018567;28;20124;-53
2021/11/09 13:17:55;;;;;;;7.53;2.50;;;26.10;33.40;;;;;;5010013;28;20141;-51
2021/11/09 13:20:38;;;;;;;5.25;2.85;;;26.00;33.10;;;;;;5007712;28;21394;-55
2021/11/09 13:23:11;;;;;;;3.20;2.40;;;25.90;31.60;;;;;;5018951;28;20129;-55
2021/11/09 13:25:58;;;;;;;1.80;1.50;;;25.80;33.00;;;;;;5020955;28;20040;-55
2021/11/09 13:28:36;;;;;;;4.00;1.60;;;25.80;34.10;;;;;;5016891;28;20049;-54
2021/11/09 13:31:08;;;;;;;2.67;1.88;;;25.80;34.60;;;;;;5016391;28;20465;-54
2021/11/09 13:33:41;;;;;;;2.00;1.48;;;25.80;35.00;;;;;;5022096;28;20056;-55
2021/11/09 13:36:09;;;;;;;5.40;1.52;;;25.80;35.10;;;;;;5021783;28;20045;-54
2021/11/09 13:38:40;;;;;;;2.05;1.42;;;25.90;35.30;;;;;;5014734;28;20053;-55
2021/11/09 13:41:16;;;;;;;2.20;1.48;;;25.90;35.20;;;;;;5013160;28;20491;-53
2021/11/09 13:43:51;;;;;;;6.38;1.50;;;25.90;35.10;;;;;;5018452;28;20120;-54
2021/11/09 13:46:24;;;;;;;1.60;1.48;;;25.90;35.00;;;;;;5018986;28;20099;-56
2021/11/09 13:48:58;;;;;;;1.30;1.20;;;26.00;35.00;;;;;;5008854;28;20132;-53
2021/11/09 13:51:40;;;;;;;2.55;1.40;;;26.00;35.00;;;;;;5015924;28;20048;-52
2021/11/09 13:54:18;;;;;;;3.50;2.00;;;26.00;34.70;;;;;;5020887;28;20051;-50
2021/11/09 13:56:49;;;;;;;2.25;1.20;;;26.00;34.40;;;;;;5019926;28;20063;-50
2021/11/09 13:59:24;;;;;;;4.18;1.55;;;26.00;34.10;;;;;;5011672;28;20494;-51
2021/11/09 14:01:58;;;;;;;4.53;1.85;;;26.00;33.80;;;;;;5007713;28;20559;-54
2021/11/09 14:04:57;;;;;;;1.70;1.60;;;26.00;33.80;;;;;;5018266;28;20252;-54
2021/11/09 14:07:46;;;;;;;5.75;1.73;;;26.10;33.70;;;;;;5018423;28;20046;-56
2021/11/09 14:10:36;;;;;;;4.38;1.52;;;26.00;33.60;;;;;;5006546;28;20154;-52
2021/11/09 14:13:26;;;;;;;3.25;1.60;;;26.00;33.40;;;;;;5022842;28;20212;-53
2021/11/09 14:16:17;;;;;;;1.45;1.35;;;26.00;33.50;;;;;;5018805;28;20057;-52
2021/11/09 14:18:52;;;;;;;4.50;1.70;;;26.00;33.60;;;;;;5019171;28;20159;-54
2021/11/09 14:21:34;;;;;;;2.03;1.55;;;26.00;33.70;;;;;;5010983;28;20138;-55
2021/11/09 14:24:23;;;;;;;3.70;1.48;;;26.00;33.70;;;;;;5018339;28;20048;-54
2021/11/09 14:27:11;;;;;;;4.23;2.03;;;26.00;33.70;;;;;;5016964;28;20127;-52
2021/11/09 14:29:50;;;;;;;2.10;1.60;;;26.00;33.70;;;;;;5007337;28;20356;-54
2021/11/09 14:32:24;;;;;;;3.25;1.73;;;25.90;33.80;;;;;;5019982;28;20080;-58
2021/11/09 14:35:03;;;;;;;2.40;1.80;;;25.90;33.80;;;;;;5016925;28;20088;-55
2021/11/09 14:37:35;;;;;;;;;;;25.90;33.90;;;;;;5013920;28;20053;-58
2021/11/09 14:40:12;;;;;;;3.33;1.50;;;25.90;34.00;;;;;;5006219;28;19958;-56